Time;durP1;ratioP1;P1;durP2;ratioP2;P2;SDS_P1;SDS_P2;PMS_P1;PMS_P2;Temp;Humidity;BMP_temperature;BMP_pressure;BME280_temperature;BME280_humidity;BME280_pressure;Samples;Min_cycle;Max_cycle;Signal;HPM_P1;HPM_P2
2024/03/04 00:00:16;;;;;;;42.27;33.00;;;;;;;;;;514916;28;1363;-82
2024/03/04 00:00:31;;;;;;;42.47;33.58;;;;;;;;;;512359;28;1335;-82
2024/03/04 00:00:47;;;;;;;41.70;32.90;;;;;;;;;;515244;28;1508;-82
2024/03/04 00:01:04;;;;;;;41.67;32.22;;;;;;;;;;515874;28;1232;-82
2024/03/04 00:01:20;;;;;;;41.85;32.72;;;;;;;;;;512570;28;1869;-81
2024/03/04 00:01:35;;;;;;;42.57;33.63;;;;;;;;;;512480;28;1492;-81
2024/03/04 00:01:51;;;;;;;43.33;33.80;;;;;;;;;;512281;28;1418;-82
2024/03/04 00:02:09;;;;;;;45.15;34.30;;;;;;;;;;513305;28;1545;-82
2024/03/04 00:02:24;;;;;;;47.13;34.05;;;;;;;;;;513355;28;1398;-81
2024/03/04 00:02:40;;;;;;;44.60;33.23;;;;;;;;;;515142;28;1958;-81
2024/03/04 00:02:55;;;;;;;42.20;32.93;;;;;;;;;;514821;28;1891;-81
2024/03/04 00:03:10;;;;;;;42.88;33.63;;;;;;;;;;515173;28;1231;-82
2024/03/04 00:03:26;;;;;;;44.33;34.20;;;;;;;;;;514415;28;1562;-82
2024/03/04 00:03:41;;;;;;;44.88;34.00;;;;;;;;;;515607;28;1390;-81
2024/03/04 00:03:56;;;;;;;43.27;33.50;;;;;;;;;;514908;28;1306;-82
2024/03/04 00:04:12;;;;;;;41.73;32.93;;;;;;;;;;515819;28;1335;-82
2024/03/04 00:04:28;;;;;;;42.35;33.30;;;;;;;;;;516762;28;1351;-82
2024/03/04 00:04:43;;;;;;;42.17;33.50;;;;;;;;;;516656;28;2280;-81
2024/03/04 00:04:58;;;;;;;43.23;33.43;;;;;;;;;;516383;28;1304;-82
2024/03/04 00:05:14;;;;;;;43.60;33.43;;;;;;;;;;516228;28;1410;-82
2024/03/04 00:05:29;;;;;;;43.15;33.35;;;;;;;;;;515971;28;1439;-81
2024/03/04 00:05:45;;;;;;;42.83;33.23;;;;;;;;;;517059;28;1350;-82
2024/03/04 00:06:00;;;;;;;41.97;32.83;;;;;;;;;;519121;28;1189;-82
2024/03/04 00:06:17;;;;;;;44.60;34.15;;;;;;;;;;518625;28;1712;-81
2024/03/04 00:06:32;;;;;;;47.20;35.15;;;;;;;;;;518334;28;1430;-82
2024/03/04 00:06:47;;;;;;;44.90;33.90;;;;;;;;;;516566;28;1527;-80
2024/03/04 00:07:04;;;;;;;43.00;33.53;;;;;;;;;;516694;28;1306;-81
2024/03/04 00:07:19;;;;;;;43.83;33.35;;;;;;;;;;516149;28;1363;-82
2024/03/04 00:07:35;;;;;;;46.10;34.37;;;;;;;;;;515957;28;1389;-82
2024/03/04 00:07:50;;;;;;;46.08;35.15;;;;;;;;;;515986;28;1822;-82
2024/03/04 00:08:06;;;;;;;44.03;34.30;;;;;;;;;;516408;28;1449;-81
2024/03/04 00:08:22;;;;;;;44.22;34.03;;;;;;;;;;515765;28;1319;-80
2024/03/04 00:08:38;;;;;;;44.53;33.65;;;;;;;;;;517347;28;1520;-81
2024/03/04 00:08:53;;;;;;;44.25;33.53;;;;;;;;;;516536;28;1464;-81
2024/03/04 00:09:09;;;;;;;45.27;33.70;;;;;;;;;;515697;28;1444;-81
2024/03/04 00:09:25;;;;;;;45.17;34.08;;;;;;;;;;512603;28;1781;-82
2024/03/04 00:09:40;;;;;;;45.38;34.40;;;;;;;;;;512757;28;1415;-82
2024/03/04 00:09:55;;;;;;;45.10;34.50;;;;;;;;;;512542;28;1425;-81
2024/03/04 00:10:11;;;;;;;45.77;34.93;;;;;;;;;;513001;28;1538;-81
2024/03/04 00:10:26;;;;;;;45.33;34.60;;;;;;;;;;514995;28;1331;-81
2024/03/04 00:10:42;;;;;;;44.40;34.13;;;;;;;;;;515249;28;1383;-81
2024/03/04 00:10:57;;;;;;;44.15;34.15;;;;;;;;;;515095;28;1736;-81
2024/03/04 00:11:13;;;;;;;44.77;34.13;;;;;;;;;;515172;28;1439;-81
2024/03/04 00:11:28;;;;;;;46.33;34.67;;;;;;;;;;516857;28;1297;-81
2024/03/04 00:11:44;;;;;;;45.03;34.23;;;;;;;;;;517073;28;1361;-82
2024/03/04 00:12:00;;;;;;;44.22;34.10;;;;;;;;;;519236;28;1432;-82
2024/03/04 00:12:15;;;;;;;46.63;34.45;;;;;;;;;;516528;28;1386;-82
2024/03/04 00:12:32;;;;;;;46.30;34.37;;;;;;;;;;517277;28;1374;-81
2024/03/04 00:12:47;;;;;;;45.75;34.63;;;;;;;;;;518541;28;1428;-82
2024/03/04 00:13:02;;;;;;;45.87;34.17;;;;;;;;;;519908;28;1182;-82
2024/03/04 00:13:18;;;;;;;45.87;34.50;;;;;;;;;;517817;28;1507;-81
2024/03/04 00:13:33;;;;;;;45.38;34.35;;;;;;;;;;518682;28;1407;-80
2024/03/04 00:13:48;;;;;;;45.07;34.10;;;;;;;;;;519005;28;1218;-81
2024/03/04 00:14:04;;;;;;;45.67;34.40;;;;;;;;;;518581;28;1318;-82
2024/03/04 00:14:19;;;;;;;45.53;34.28;;;;;;;;;;516466;28;1824;-81
2024/03/04 00:14:34;;;;;;;45.53;34.33;;;;;;;;;;516837;28;1406;-81
2024/03/04 00:14:49;;;;;;;46.03;34.57;;;;;;;;;;517159;28;1405;-81
2024/03/04 00:15:06;;;;;;;45.50;34.17;;;;;;;;;;514512;28;1561;-82
2024/03/04 00:15:23;;;;;;;45.67;34.45;;;;;;;;;;514515;28;1418;-80
2024/03/04 00:15:38;;;;;;;46.42;34.78;;;;;;;;;;515152;28;1580;-81
2024/03/04 00:15:53;;;;;;;47.30;35.10;;;;;;;;;;510594;28;1848;-81
2024/03/04 00:16:09;;;;;;;47.47;35.65;;;;;;;;;;512454;28;1415;-81
2024/03/04 00:16:24;;;;;;;46.13;34.83;;;;;;;;;;513595;28;1574;-81
2024/03/04 00:16:42;;;;;;;46.95;34.63;;;;;;;;;;515189;28;1351;-80
2024/03/04 00:16:57;;;;;;;48.30;35.05;;;;;;;;;;515065;28;1172;-81
2024/03/04 00:17:12;;;;;;;46.77;34.53;;;;;;;;;;515881;28;1401;-81
2024/03/04 00:17:29;;;;;;;44.27;33.90;;;;;;;;;;517139;28;1339;-80
2024/03/04 00:17:45;;;;;;;44.80;34.38;;;;;;;;;;515146;28;1472;-84
2024/03/04 00:18:00;;;;;;;46.45;34.75;;;;;;;;;;516338;28;1430;-82
2024/03/04 00:18:16;;;;;;;46.93;34.90;;;;;;;;;;516554;28;1409;-81
2024/03/04 00:18:31;;;;;;;45.70;34.92;;;;;;;;;;517306;28;1358;-81
2024/03/04 00:18:47;;;;;;;45.63;34.73;;;;;;;;;;514330;28;1322;-81
2024/03/04 00:19:03;;;;;;;45.10;34.60;;;;;;;;;;514538;28;1121;-81
2024/03/04 00:19:19;;;;;;;44.92;35.05;;;;;;;;;;512806;28;1995;-81
2024/03/04 00:19:36;;;;;;;46.27;35.03;;;;;;;;;;513519;28;1411;-82
2024/03/04 00:19:52;;;;;;;46.42;34.72;;;;;;;;;;512417;28;1443;-81
2024/03/04 00:20:09;;;;;;;45.95;34.67;;;;;;;;;;513217;28;1369;-82
2024/03/04 00:20:24;;;;;;;46.75;35.00;;;;;;;;;;514192;28;1327;-81
2024/03/04 00:20:40;;;;;;;46.60;35.72;;;;;;;;;;516158;28;1410;-81
2024/03/04 00:20:55;;;;;;;46.43;35.23;;;;;;;;;;516609;28;1632;-81
2024/03/04 00:21:10;;;;;;;45.57;34.37;;;;;;;;;;518005;28;1445;-80
2024/03/04 00:21:27;;;;;;;45.90;34.47;;;;;;;;;;517084;28;1343;-81
2024/03/04 00:21:43;;;;;;;46.50;35.00;;;;;;;;;;517930;28;1472;-82
2024/03/04 00:21:59;;;;;;;46.65;35.40;;;;;;;;;;517690;28;1325;-81
2024/03/04 00:22:14;;;;;;;46.28;35.33;;;;;;;;;;516943;28;1513;-82
2024/03/04 00:22:29;;;;;;;46.90;35.60;;;;;;;;;;517248;28;1976;-81
2024/03/04 00:22:47;;;;;;;46.37;35.23;;;;;;;;;;517631;28;1405;-82
2024/03/04 00:23:04;;;;;;;46.50;35.15;;;;;;;;;;517203;28;1117;-82
2024/03/04 00:23:20;;;;;;;47.15;35.50;;;;;;;;;;517126;28;1239;-82
2024/03/04 00:23:36;;;;;;;47.20;35.57;;;;;;;;;;517570;28;1220;-82
2024/03/04 00:23:51;;;;;;;47.17;35.53;;;;;;;;;;519503;28;1083;-80
2024/03/04 00:24:06;;;;;;;46.80;35.50;;;;;;;;;;520430;28;1694;-82
2024/03/04 00:24:22;;;;;;;46.78;35.47;;;;;;;;;;519044;28;1326;-81
2024/03/04 00:24:37;;;;;;;46.53;35.20;;;;;;;;;;517121;28;1445;-81
2024/03/04 00:24:53;;;;;;;46.45;35.00;;;;;;;;;;517032;28;1342;-81
2024/03/04 00:25:14;;;;;;;47.00;35.23;;;;;;;;;;514387;28;1402;-82
2024/03/04 00:25:29;;;;;;;46.83;34.78;;;;;;;;;;515050;28;1316;-81
2024/03/04 00:25:45;;;;;;;48.10;35.45;;;;;;;;;;513438;28;1529;-82
2024/03/04 00:26:01;;;;;;;47.20;35.20;;;;;;;;;;515627;28;3152;-82
2024/03/04 00:26:16;;;;;;;45.38;34.95;;;;;;;;;;514925;28;1430;-81
2024/03/04 00:26:32;;;;;;;46.23;35.57;;;;;;;;;;516263;28;1424;-81
2024/03/04 00:26:47;;;;;;;48.10;36.08;;;;;;;;;;517056;28;1373;-82
2024/03/04 00:27:03;;;;;;;48.70;36.40;;;;;;;;;;518060;28;1192;-81
2024/03/04 00:27:20;;;;;;;48.70;36.28;;;;;;;;;;518538;28;1384;-82
2024/03/04 00:27:35;;;;;;;47.95;35.75;;;;;;;;;;517231;28;1420;-81
2024/03/04 00:27:53;;;;;;;47.10;35.33;;;;;;;;;;517080;28;1246;-80
2024/03/04 00:28:09;;;;;;;47.85;35.08;;;;;;;;;;517341;28;1259;-82
2024/03/04 00:28:24;;;;;;;47.43;35.00;;;;;;;;;;516518;28;1402;-81
2024/03/04 00:28:40;;;;;;;46.33;35.20;;;;;;;;;;517157;28;1446;-81
2024/03/04 00:28:55;;;;;;;47.40;35.93;;;;;;;;;;517967;28;1476;-81
2024/03/04 00:29:10;;;;;;;48.30;36.33;;;;;;;;;;517095;28;1445;-81
2024/03/04 00:29:28;;;;;;;48.78;36.35;;;;;;;;;;517109;28;2490;-82
2024/03/04 00:29:44;;;;;;;48.97;36.13;;;;;;;;;;515221;28;1350;-81
2024/03/04 00:29:59;;;;;;;46.90;35.63;;;;;;;;;;515416;28;1042;-82
2024/03/04 00:30:15;;;;;;;48.03;35.53;;;;;;;;;;514683;28;1212;-81
2024/03/04 00:30:30;;;;;;;49.30;35.40;;;;;;;;;;516418;28;1236;-81
2024/03/04 00:30:45;;;;;;;47.28;35.03;;;;;;;;;;519237;28;1355;-81
2024/03/04 00:31:01;;;;;;;46.23;34.90;;;;;;;;;;521254;28;1160;-83
2024/03/04 00:31:16;;;;;;;46.40;34.87;;;;;;;;;;519361;28;1376;-82
2024/03/04 00:31:32;;;;;;;46.83;35.03;;;;;;;;;;519416;28;1308;-81
2024/03/04 00:31:47;;;;;;;47.03;34.90;;;;;;;;;;517190;28;1203;-82
2024/03/04 00:32:02;;;;;;;46.10;34.50;;;;;;;;;;516959;28;1211;-84
2024/03/04 00:32:18;;;;;;;45.50;34.30;;;;;;;;;;515083;28;1158;-82
2024/03/04 00:32:33;;;;;;;46.13;34.67;;;;;;;;;;515316;28;934;-81
2024/03/04 00:32:48;;;;;;;47.10;35.20;;;;;;;;;;516179;28;1114;-82
2024/03/04 00:33:04;;;;;;;46.43;35.00;;;;;;;;;;516074;28;1126;-81
2024/03/04 00:33:19;;;;;;;45.93;35.13;;;;;;;;;;519079;28;989;-81
2024/03/04 00:33:34;;;;;;;46.30;35.72;;;;;;;;;;521364;28;1160;-82
2024/03/04 00:33:50;;;;;;;45.93;35.53;;;;;;;;;;518335;28;1159;-82
2024/03/04 00:34:05;;;;;;;47.30;35.60;;;;;;;;;;517357;28;1324;-81
2024/03/04 00:34:20;;;;;;;47.45;35.30;;;;;;;;;;519097;28;1306;-82
2024/03/04 00:34:36;;;;;;;46.27;35.00;;;;;;;;;;517347;28;1240;-81
2024/03/04 00:34:51;;;;;;;46.40;34.97;;;;;;;;;;517204;28;1013;-81
2024/03/04 00:35:09;;;;;;;47.67;35.42;;;;;;;;;;516850;28;2049;-82
2024/03/04 00:35:24;;;;;;;49.63;36.38;;;;;;;;;;518520;28;2147;-81
2024/03/04 00:35:39;;;;;;;48.35;35.53;;;;;;;;;;517146;28;1331;-82
2024/03/04 00:35:55;;;;;;;47.30;35.20;;;;;;;;;;516722;28;997;-81
2024/03/04 00:36:10;;;;;;;46.67;35.03;;;;;;;;;;514762;28;1351;-82
2024/03/04 00:36:26;;;;;;;48.88;35.80;;;;;;;;;;513589;28;1351;-81
2024/03/04 00:36:41;;;;;;;49.72;36.50;;;;;;;;;;515291;28;1325;-82
2024/03/04 00:36:57;;;;;;;47.60;35.73;;;;;;;;;;517126;28;1073;-82
2024/03/04 00:37:12;;;;;;;48.13;36.08;;;;;;;;;;516989;28;1246;-82
2024/03/04 00:37:28;;;;;;;49.43;36.60;;;;;;;;;;515705;28;1146;-82
2024/03/04 00:37:43;;;;;;;48.50;35.90;;;;;;;;;;517349;28;819;-80
2024/03/04 00:37:58;;;;;;;48.03;35.55;;;;;;;;;;517525;28;1126;-82
2024/03/04 00:38:13;;;;;;;48.13;35.73;;;;;;;;;;518990;28;962;-82
2024/03/04 00:38:29;;;;;;;47.83;35.47;;;;;;;;;;517269;28;1188;-81
2024/03/04 00:38:44;;;;;;;48.23;35.03;;;;;;;;;;517079;28;1056;-82
2024/03/04 00:39:00;;;;;;;48.38;35.33;;;;;;;;;;515409;28;1045;-82
2024/03/04 00:39:16;;;;;;;48.83;36.00;;;;;;;;;;515275;28;1413;-81
2024/03/04 00:39:31;;;;;;;48.95;36.15;;;;;;;;;;515346;28;941;-81
2024/03/04 00:39:46;;;;;;;48.80;35.63;;;;;;;;;;515167;28;1188;-82
2024/03/04 00:40:06;;;;;;;48.57;35.40;;;;;;;;;;516687;28;1022;-82
2024/03/04 00:40:22;;;;;;;48.38;35.63;;;;;;;;;;518099;28;1354;-81
2024/03/04 00:40:38;;;;;;;47.45;35.13;;;;;;;;;;519127;28;1526;-81
2024/03/04 00:40:53;;;;;;;47.53;35.07;;;;;;;;;;518714;28;1067;-82
2024/03/04 00:41:09;;;;;;;48.03;36.03;;;;;;;;;;516124;28;1264;-85
2024/03/04 00:41:25;;;;;;;49.30;36.87;;;;;;;;;;517591;28;891;-82
2024/03/04 00:41:42;;;;;;;48.83;35.78;;;;;;;;;;517353;28;1183;-82
2024/03/04 00:41:58;;;;;;;47.65;35.15;;;;;;;;;;516336;28;1292;-82
2024/03/04 00:42:13;;;;;;;48.00;35.58;;;;;;;;;;516985;28;1344;-82
2024/03/04 00:42:28;;;;;;;47.97;35.37;;;;;;;;;;515072;28;1971;-82
2024/03/04 00:42:44;;;;;;;48.73;35.50;;;;;;;;;;514852;28;1158;-81
2024/03/04 00:42:59;;;;;;;48.63;35.43;;;;;;;;;;512998;28;1496;-82
2024/03/04 00:43:15;;;;;;;49.47;36.28;;;;;;;;;;512716;28;1205;-82
2024/03/04 00:43:30;;;;;;;50.28;36.22;;;;;;;;;;513387;28;953;-80
2024/03/04 00:43:46;;;;;;;49.73;36.47;;;;;;;;;;513327;28;1354;-83
2024/03/04 00:44:01;;;;;;;49.97;37.45;;;;;;;;;;516340;28;1339;-81
2024/03/04 00:44:17;;;;;;;49.13;37.07;;;;;;;;;;517363;28;922;-82
2024/03/04 00:44:32;;;;;;;47.93;36.40;;;;;;;;;;514310;28;1176;-82
2024/03/04 00:44:47;;;;;;;48.50;36.10;;;;;;;;;;513498;28;1099;-81
2024/03/04 00:45:05;;;;;;;48.03;35.97;;;;;;;;;;514379;28;1186;-81
2024/03/04 00:45:20;;;;;;;49.97;36.83;;;;;;;;;;512854;28;1120;-82
2024/03/04 00:45:36;;;;;;;50.37;36.93;;;;;;;;;;513794;28;1268;-82
2024/03/04 00:45:52;;;;;;;49.58;36.67;;;;;;;;;;516379;28;1037;-82
2024/03/04 00:46:07;;;;;;;50.58;36.40;;;;;;;;;;515108;28;1279;-81
2024/03/04 00:46:23;;;;;;;53.63;36.00;;;;;;;;;;515155;28;1275;-82
2024/03/04 00:46:43;;;;;;;52.38;35.85;;;;;;;;;;514849;28;839;-81
2024/03/04 00:46:59;;;;;;;47.35;35.22;;;;;;;;;;514863;28;1386;-82
2024/03/04 00:47:14;;;;;;;49.03;36.05;;;;;;;;;;515343;28;1650;-81
2024/03/04 00:47:29;;;;;;;51.00;37.13;;;;;;;;;;516344;28;1635;-81
2024/03/04 00:47:45;;;;;;;51.63;37.33;;;;;;;;;;517217;28;1351;-82
2024/03/04 00:48:00;;;;;;;50.88;37.13;;;;;;;;;;516832;28;1192;-84
2024/03/04 00:48:16;;;;;;;49.60;36.70;;;;;;;;;;515674;28;1286;-82
2024/03/04 00:48:32;;;;;;;48.22;35.85;;;;;;;;;;517211;28;973;-81
2024/03/04 00:48:48;;;;;;;49.27;36.40;;;;;;;;;;517264;28;837;-82
2024/03/04 00:49:04;;;;;;;47.85;35.85;;;;;;;;;;519026;28;1381;-82
2024/03/04 00:49:19;;;;;;;47.42;36.17;;;;;;;;;;517164;28;1242;-82
2024/03/04 00:49:35;;;;;;;50.87;37.27;;;;;;;;;;515330;28;1359;-82
2024/03/04 00:49:50;;;;;;;53.20;37.27;;;;;;;;;;515259;28;1013;-82
2024/03/04 00:50:06;;;;;;;50.97;36.25;;;;;;;;;;516624;28;1353;-82
2024/03/04 00:50:21;;;;;;;50.17;36.55;;;;;;;;;;519010;28;1341;-81
2024/03/04 00:50:36;;;;;;;50.57;37.00;;;;;;;;;;517284;28;1325;-82
2024/03/04 00:50:52;;;;;;;51.00;36.27;;;;;;;;;;515077;28;1291;-82
2024/03/04 00:51:08;;;;;;;51.88;36.50;;;;;;;;;;515722;28;886;-82
2024/03/04 00:51:23;;;;;;;50.63;36.65;;;;;;;;;;519260;28;830;-81
2024/03/04 00:51:38;;;;;;;49.43;36.47;;;;;;;;;;519372;28;1267;-82
2024/03/04 00:51:54;;;;;;;51.30;37.07;;;;;;;;;;516409;28;1091;-82
2024/03/04 00:52:10;;;;;;;51.92;36.85;;;;;;;;;;515234;28;844;-81
2024/03/04 00:52:25;;;;;;;50.15;36.40;;;;;;;;;;515191;28;894;-82
2024/03/04 00:52:40;;;;;;;50.47;36.27;;;;;;;;;;513702;28;1173;-82
2024/03/04 00:52:58;;;;;;;52.13;36.65;;;;;;;;;;513243;28;1302;-82
2024/03/04 00:53:13;;;;;;;50.42;36.45;;;;;;;;;;512743;28;1282;-82
2024/03/04 00:53:29;;;;;;;50.10;36.63;;;;;;;;;;513918;28;796;-81
2024/03/04 00:53:44;;;;;;;50.90;36.85;;;;;;;;;;515076;28;1199;-81
2024/03/04 00:54:00;;;;;;;50.27;36.33;;;;;;;;;;513582;28;1240;-82
2024/03/04 00:54:15;;;;;;;48.92;36.22;;;;;;;;;;515218;28;867;-82
2024/03/04 00:54:30;;;;;;;48.87;36.53;;;;;;;;;;516029;28;775;-81
2024/03/04 00:54:46;;;;;;;50.97;37.00;;;;;;;;;;517553;28;1177;-82
2024/03/04 00:55:01;;;;;;;52.35;37.30;;;;;;;;;;517229;28;1296;-81
2024/03/04 00:55:17;;;;;;;52.43;37.30;;;;;;;;;;517170;28;1215;-81
2024/03/04 00:55:33;;;;;;;53.38;37.45;;;;;;;;;;516343;28;1334;-82
2024/03/04 00:55:49;;;;;;;53.13;36.97;;;;;;;;;;514779;28;1895;-81
2024/03/04 00:56:04;;;;;;;52.53;37.22;;;;;;;;;;517773;28;1851;-81
2024/03/04 00:56:21;;;;;;;52.15;37.28;;;;;;;;;;518130;28;2124;-81
2024/03/04 00:56:36;;;;;;;51.30;36.78;;;;;;;;;;516685;28;1255;-81
2024/03/04 00:56:51;;;;;;;51.57;37.37;;;;;;;;;;517886;28;1306;-82
2024/03/04 00:57:07;;;;;;;52.80;38.03;;;;;;;;;;515272;28;1149;-80
2024/03/04 00:57:22;;;;;;;53.08;38.20;;;;;;;;;;515168;28;1294;-82
2024/03/04 00:57:38;;;;;;;52.63;37.80;;;;;;;;;;513289;28;1224;-82
2024/03/04 00:57:53;;;;;;;52.38;37.17;;;;;;;;;;512444;28;1379;-81
2024/03/04 00:58:09;;;;;;;49.83;36.30;;;;;;;;;;511265;28;938;-81
2024/03/04 00:58:24;;;;;;;49.35;36.28;;;;;;;;;;512351;28;1310;-81
2024/03/04 00:58:42;;;;;;;49.93;36.33;;;;;;;;;;513651;28;796;-81
2024/03/04 00:58:58;;;;;;;51.28;37.10;;;;;;;;;;513104;28;1060;-81
2024/03/04 00:59:13;;;;;;;53.75;37.53;;;;;;;;;;512929;28;1142;-81
2024/03/04 00:59:30;;;;;;;51.53;36.23;;;;;;;;;;514046;28;2362;-81
2024/03/04 00:59:45;;;;;;;51.15;36.15;;;;;;;;;;517465;28;2484;-81
2024/03/04 01:00:01;;;;;;;51.57;36.67;;;;;;;;;;515535;28;882;-81
2024/03/04 01:00:17;;;;;;;49.67;36.50;;;;;;;;;;516647;28;1247;-82
2024/03/04 01:00:33;;;;;;;50.00;36.28;;;;;;;;;;517258;28;1530;-82
2024/03/04 01:00:49;;;;;;;49.80;35.93;;;;;;;;;;518648;28;1203;-80
2024/03/04 01:01:05;;;;;;;50.40;36.45;;;;;;;;;;517208;28;1262;-82
2024/03/04 01:01:23;;;;;;;51.60;36.90;;;;;;;;;;517186;28;1359;-81
2024/03/04 01:01:38;;;;;;;51.10;36.95;;;;;;;;;;517101;28;1495;-82
2024/03/04 01:01:54;;;;;;;49.72;36.38;;;;;;;;;;517401;28;1365;-80
2024/03/04 01:02:11;;;;;;;50.10;36.23;;;;;;;;;;516626;28;1614;-82
2024/03/04 01:02:27;;;;;;;50.10;36.38;;;;;;;;;;514534;28;1452;-81
2024/03/04 01:02:42;;;;;;;50.33;36.53;;;;;;;;;;513647;28;1906;-81
2024/03/04 01:02:57;;;;;;;50.93;36.23;;;;;;;;;;512211;28;1410;-81
2024/03/04 01:03:13;;;;;;;52.77;36.43;;;;;;;;;;513332;28;1517;-82
2024/03/04 01:03:28;;;;;;;52.10;35.75;;;;;;;;;;516206;28;1567;-82
2024/03/04 01:03:43;;;;;;;48.77;34.93;;;;;;;;;;516781;28;1565;-82
2024/03/04 01:03:59;;;;;;;48.43;35.63;;;;;;;;;;517852;28;1547;-82
2024/03/04 01:04:14;;;;;;;50.33;36.60;;;;;;;;;;515989;28;1503;-81
2024/03/04 01:04:30;;;;;;;51.10;36.55;;;;;;;;;;518300;28;1248;-81
2024/03/04 01:04:45;;;;;;;51.93;36.53;;;;;;;;;;517120;28;1934;-82
2024/03/04 01:05:02;;;;;;;52.20;36.42;;;;;;;;;;519260;28;2001;-81
2024/03/04 01:05:18;;;;;;;51.38;36.30;;;;;;;;;;518264;28;1881;-81
2024/03/04 01:05:33;;;;;;;52.10;37.05;;;;;;;;;;517446;28;1329;-81
2024/03/04 01:05:49;;;;;;;52.10;36.80;;;;;;;;;;516718;28;1492;-82
2024/03/04 01:06:05;;;;;;;52.00;37.00;;;;;;;;;;517503;28;1453;-82
2024/03/04 01:06:20;;;;;;;51.47;37.07;;;;;;;;;;516578;28;1412;-82
2024/03/04 01:06:38;;;;;;;51.67;36.63;;;;;;;;;;515497;28;1495;-82
2024/03/04 01:06:53;;;;;;;51.50;36.22;;;;;;;;;;514381;28;1432;-82
2024/03/04 01:07:08;;;;;;;49.70;36.03;;;;;;;;;;518643;28;1566;-81
2024/03/04 01:07:24;;;;;;;50.03;36.22;;;;;;;;;;518843;28;1585;-82
2024/03/04 01:07:39;;;;;;;52.43;36.60;;;;;;;;;;513857;28;1562;-81
2024/03/04 01:07:54;;;;;;;51.70;36.40;;;;;;;;;;513193;28;1616;-85
2024/03/04 01:08:10;;;;;;;50.88;36.05;;;;;;;;;;515196;28;1512;-81
2024/03/04 01:08:26;;;;;;;50.47;36.27;;;;;;;;;;516284;28;1516;-81
2024/03/04 01:08:42;;;;;;;48.97;36.20;;;;;;;;;;514913;28;1489;-81
2024/03/04 01:08:57;;;;;;;50.88;36.42;;;;;;;;;;514072;28;1283;-82
2024/03/04 01:09:13;;;;;;;51.22;36.08;;;;;;;;;;513072;28;1343;-82
2024/03/04 01:09:28;;;;;;;50.37;35.47;;;;;;;;;;514685;28;1505;-81
2024/03/04 01:09:43;;;;;;;51.83;36.43;;;;;;;;;;515294;28;1489;-82
2024/03/04 01:09:59;;;;;;;52.35;36.90;;;;;;;;;;516754;28;1482;-82
2024/03/04 01:10:14;;;;;;;49.93;36.00;;;;;;;;;;517667;28;1701;-82
2024/03/04 01:10:29;;;;;;;48.30;35.53;;;;;;;;;;518690;28;1201;-81
2024/03/04 01:10:45;;;;;;;48.92;35.28;;;;;;;;;;518420;28;1501;-81
2024/03/04 01:11:00;;;;;;;49.97;35.33;;;;;;;;;;518921;28;1356;-81
2024/03/04 01:11:16;;;;;;;49.78;35.45;;;;;;;;;;517013;28;1513;-80
2024/03/04 01:11:31;;;;;;;50.10;35.67;;;;;;;;;;519173;28;1576;-81
2024/03/04 01:11:47;;;;;;;50.20;36.05;;;;;;;;;;517446;28;2156;-81
2024/03/04 01:12:02;;;;;;;50.23;36.10;;;;;;;;;;517370;28;1267;-81
2024/03/04 01:12:18;;;;;;;50.65;35.90;;;;;;;;;;514940;28;1539;-81
2024/03/04 01:12:33;;;;;;;50.00;35.60;;;;;;;;;;517148;28;1527;-82
2024/03/04 01:12:49;;;;;;;51.07;36.07;;;;;;;;;;517191;28;1364;-82
2024/03/04 01:13:04;;;;;;;51.40;36.40;;;;;;;;;;518555;28;1395;-82
2024/03/04 01:13:21;;;;;;;50.42;35.30;;;;;;;;;;517288;28;1444;-82
2024/03/04 01:13:36;;;;;;;51.42;35.30;;;;;;;;;;516867;28;1529;-81
2024/03/04 01:13:51;;;;;;;52.47;35.72;;;;;;;;;;517766;28;1142;-82
2024/03/04 01:14:07;;;;;;;53.17;35.97;;;;;;;;;;517009;28;1396;-82
2024/03/04 01:14:22;;;;;;;51.63;35.60;;;;;;;;;;516772;28;1531;-81
2024/03/04 01:14:41;;;;;;;50.22;35.20;;;;;;;;;;515455;28;1623;-81
2024/03/04 01:14:56;;;;;;;50.80;35.30;;;;;;;;;;516521;28;1278;-82
2024/03/04 01:15:12;;;;;;;50.90;34.85;;;;;;;;;;517622;28;1531;-82
2024/03/04 01:15:27;;;;;;;49.47;34.43;;;;;;;;;;518208;28;1561;-81
2024/03/04 01:15:43;;;;;;;48.97;34.42;;;;;;;;;;517964;28;1482;-81
2024/03/04 01:15:58;;;;;;;49.60;34.57;;;;;;;;;;517624;28;1300;-81
2024/03/04 01:16:13;;;;;;;48.55;35.15;;;;;;;;;;517077;28;1326;-81
2024/03/04 01:16:31;;;;;;;47.73;35.13;;;;;;;;;;518621;28;1633;-80
2024/03/04 01:16:49;;;;;;;48.17;34.83;;;;;;;;;;516990;28;1567;-82
2024/03/04 01:17:12;;;;;;;47.15;33.75;;;;;;;;;;516853;28;1309;-82
2024/03/04 01:17:28;;;;;;;45.85;33.40;;;;;;;;;;516683;28;1379;-82
2024/03/04 01:17:46;;;;;;;47.00;34.00;;;;;;;;;;514973;28;1524;-81
2024/03/04 01:18:02;;;;;;;50.00;34.42;;;;;;;;;;514994;28;1413;-82
2024/03/04 01:18:17;;;;;;;49.88;34.25;;;;;;;;;;515263;28;1590;-81
2024/03/04 01:18:33;;;;;;;48.73;34.73;;;;;;;;;;515360;28;1555;-81
2024/03/04 01:18:48;;;;;;;48.67;35.00;;;;;;;;;;513675;28;1280;-81
2024/03/04 01:19:04;;;;;;;47.50;33.85;;;;;;;;;;516070;28;1415;-80
2024/03/04 01:19:23;;;;;;;47.45;34.05;;;;;;;;;;513167;28;1410;-80
2024/03/04 01:19:45;;;;;;;47.05;33.85;;;;;;;;;;514581;28;1533;-81
2024/03/04 01:20:04;;;;;;;46.10;33.22;;;;;;;;;;514702;28;1371;-81
2024/03/04 01:20:20;;;;;;;46.95;33.22;;;;;;;;;;513825;28;1588;-81
2024/03/04 01:20:38;;;;;;;46.40;33.75;;;;;;;;;;512023;28;1518;-80
2024/03/04 01:20:54;;;;;;;46.65;33.53;;;;;;;;;;513664;28;1295;-82
2024/03/04 01:21:09;;;;;;;48.08;33.92;;;;;;;;;;514058;28;1509;-82
2024/03/04 01:21:24;;;;;;;47.75;33.92;;;;;;;;;;514173;28;1533;-81
2024/03/04 01:21:40;;;;;;;46.27;33.87;;;;;;;;;;512703;28;1346;-81
2024/03/04 01:21:55;;;;;;;46.63;33.63;;;;;;;;;;514693;28;1331;-81
2024/03/04 01:22:13;;;;;;;47.40;33.58;;;;;;;;;;515560;28;1481;-81
2024/03/04 01:22:28;;;;;;;47.50;33.05;;;;;;;;;;514157;28;1785;-82
2024/03/04 01:22:44;;;;;;;48.67;33.42;;;;;;;;;;516977;28;1903;-80
2024/03/04 01:22:59;;;;;;;48.17;33.60;;;;;;;;;;517178;28;1504;-82
2024/03/04 01:23:14;;;;;;;46.55;32.53;;;;;;;;;;515780;28;1396;-82
2024/03/04 01:23:30;;;;;;;46.37;32.50;;;;;;;;;;517778;28;1174;-81
2024/03/04 01:23:46;;;;;;;47.67;33.35;;;;;;;;;;516358;28;1231;-81
2024/03/04 01:24:02;;;;;;;47.90;33.85;;;;;;;;;;515847;28;1351;-81
2024/03/04 01:24:18;;;;;;;45.42;33.17;;;;;;;;;;517050;28;1487;-81
2024/03/04 01:24:33;;;;;;;44.57;32.73;;;;;;;;;;517870;28;1557;-84
2024/03/04 01:24:51;;;;;;;45.95;33.08;;;;;;;;;;517603;28;1491;-81
2024/03/04 01:25:06;;;;;;;46.20;33.03;;;;;;;;;;519415;28;1510;-80
2024/03/04 01:25:23;;;;;;;47.00;33.27;;;;;;;;;;519477;28;1441;-82
2024/03/04 01:25:40;;;;;;;47.53;33.53;;;;;;;;;;520795;28;1528;-82
2024/03/04 01:25:55;;;;;;;47.35;33.53;;;;;;;;;;519786;28;1307;-80
2024/03/04 01:26:10;;;;;;;46.83;33.83;;;;;;;;;;519028;28;1478;-80
2024/03/04 01:26:26;;;;;;;45.17;33.00;;;;;;;;;;519255;28;1563;-81
2024/03/04 01:26:41;;;;;;;44.97;32.50;;;;;;;;;;517882;28;1508;-82
2024/03/04 01:26:57;;;;;;;47.30;33.53;;;;;;;;;;517377;28;1219;-82
2024/03/04 01:27:12;;;;;;;46.90;33.13;;;;;;;;;;517903;28;1515;-82
2024/03/04 01:27:28;;;;;;;46.50;32.53;;;;;;;;;;516882;28;1356;-81
2024/03/04 01:27:43;;;;;;;46.67;33.05;;;;;;;;;;518068;28;1498;-81
2024/03/04 01:27:58;;;;;;;44.60;32.53;;;;;;;;;;516654;28;1507;-82
2024/03/04 01:28:14;;;;;;;45.63;32.30;;;;;;;;;;516511;28;1518;-82
2024/03/04 01:28:29;;;;;;;47.25;32.70;;;;;;;;;;518768;28;1538;-82
2024/03/04 01:28:48;;;;;;;45.97;33.03;;;;;;;;;;518954;28;1546;-81
2024/03/04 01:29:03;;;;;;;46.67;33.35;;;;;;;;;;520022;28;1359;-81
2024/03/04 01:29:18;;;;;;;46.93;32.83;;;;;;;;;;518655;28;1412;-81
2024/03/04 01:29:34;;;;;;;44.37;31.53;;;;;;;;;;519099;28;1543;-80
2024/03/04 01:29:49;;;;;;;43.85;31.33;;;;;;;;;;515980;28;1373;-81
2024/03/04 01:30:05;;;;;;;43.70;31.53;;;;;;;;;;515541;28;1440;-81
2024/03/04 01:30:20;;;;;;;43.35;31.50;;;;;;;;;;514867;28;1309;-82
2024/03/04 01:30:36;;;;;;;45.20;32.40;;;;;;;;;;513814;28;1446;-81
2024/03/04 01:30:53;;;;;;;44.33;32.13;;;;;;;;;;514965;28;1191;-81
2024/03/04 01:31:08;;;;;;;44.78;31.63;;;;;;;;;;514632;28;1441;-81
2024/03/04 01:31:23;;;;;;;46.80;32.00;;;;;;;;;;512688;28;1477;-82
2024/03/04 01:31:39;;;;;;;45.20;31.57;;;;;;;;;;513520;28;1497;-81
2024/03/04 01:31:54;;;;;;;44.53;31.50;;;;;;;;;;515711;28;1197;-80
2024/03/04 01:32:10;;;;;;;46.03;32.07;;;;;;;;;;516971;28;1516;-81
2024/03/04 01:32:25;;;;;;;45.30;31.92;;;;;;;;;;516885;28;1431;-81
2024/03/04 01:32:42;;;;;;;44.63;31.73;;;;;;;;;;518760;28;1393;-82
2024/03/04 01:32:59;;;;;;;43.10;31.10;;;;;;;;;;518010;28;1326;-81
2024/03/04 01:33:14;;;;;;;42.72;30.77;;;;;;;;;;513804;28;1327;-81
2024/03/04 01:33:29;;;;;;;43.17;30.87;;;;;;;;;;513313;28;1323;-82
2024/03/04 01:33:49;;;;;;;43.60;31.25;;;;;;;;;;514253;28;1169;-81
2024/03/04 01:34:04;;;;;;;43.95;30.88;;;;;;;;;;515617;28;1097;-80
2024/03/04 01:34:19;;;;;;;43.60;30.30;;;;;;;;;;514704;28;1296;-82
2024/03/04 01:34:38;;;;;;;43.93;30.43;;;;;;;;;;514986;28;1031;-82
2024/03/04 01:34:54;;;;;;;44.17;30.85;;;;;;;;;;514274;28;997;-81